メインページ
METAR-TAF:

METAR-TAF

空港 :

レオポール・セダール・サンゴール国際空港

ダカール, セネガル

緯度: 14-44N, 経度: 017-30W, 海抜: 27m

現時点の気象観測

当レポートは1時間47分前の00:00(UTC)に作成
の風 6kt
気温 19°C
湿度 78%
気圧 1018 hPa
視程: 8000m

METAR: GOOY 210000Z 36006KT 8000 NSC 19/15 Q1018

時間: 01:47 (01:47 UTC)

予報

当レポートは2時間17分前の23:30(UTC)に作成
予報は21日の 00時(UTC)から 22日の 06時(UTC)まで有効
の風 13kt
視程10km以上
1,500メートル以下は雲なし、積乱雲なし

TAF: GOOY 202330Z 2100/2206 01013KT CAVOK

4,000以上の空港の気象観測と天気予報(METAR報とTAF報)

利用可能な観測所は地図上に黄色い丸と赤い丸で示す。

丸の上にカーソルを重ねると観測所名を参照できる。

次にクリックすると気象観測と天気予報を参照できる。

マップの切り替え:黒色「×」印の緑ボタンをクリックして拡大、「-」印の緑ボタンをクリックして縮小、緑色の三角印をクリックして隣りの地図に切り替え


METAR-TAF: